Time;durP1;ratioP1;P1;durP2;ratioP2;P2;SDS_P1;SDS_P2;PMS_P1;PMS_P2;Temp;Humidity;BMP_temperature;BMP_pressure;BME280_temperature;BME280_humidity;BME280_pressure;Samples;Min_cycle;Max_cycle;Signal;HPM_P1;HPM_P2
2021/11/22 00:00:00;;;;;;;10.93;7.87;;;;;;;14.88;61.79;101175.21;1661012;86;21584;-67
2021/11/22 00:02:27;;;;;;;12.47;7.70;;;;;;;14.86;61.88;101173.92;1656039;87;21075;-65
2021/11/22 00:04:54;;;;;;;13.35;8.63;;;;;;;14.84;61.86;101183.60;1655867;85;21040;-67
2021/11/22 00:07:20;;;;;;;12.78;8.38;;;;;;;14.83;61.92;101182.35;1653477;85;21107;-70
2021/11/22 00:09:49;;;;;;;11.57;8.78;;;;;;;14.83;62.01;101178.42;1655619;87;21076;-71
2021/11/22 00:12:17;;;;;;;13.35;8.55;;;;;;;14.82;62.04;101178.03;1655859;87;21071;-69
2021/11/22 00:14:46;;;;;;;14.18;8.55;;;;;;;14.83;62.10;101178.42;1655928;87;21637;-71
2021/11/22 00:17:12;;;;;;;14.30;8.50;;;;;;;14.81;62.11;101176.30;1656045;85;21072;-69
2021/11/22 00:19:40;;;;;;;19.05;8.28;;;;;;;14.80;62.19;101181.98;1655889;86;21068;-68
2021/11/22 00:22:07;;;;;;;13.30;8.30;;;;;;;14.80;62.06;101178.50;1656020;87;21032;-67
2021/11/22 00:24:34;;;;;;;10.63;8.03;;;;;;;14.79;62.15;101182.05;1656056;85;21060;-71
2021/11/22 00:27:01;;;;;;;13.08;8.08;;;;;;;14.77;62.32;101182.11;1656315;87;21079;-68
2021/11/22 00:29:27;;;;;;;11.10;7.80;;;;;;;14.78;62.37;101175.08;1656011;87;21079;-66
2021/11/22 00:32:06;;;;;;;12.63;7.58;;;;;;;14.79;62.47;101178.98;1655859;87;21056;-66
2021/11/22 00:34:56;;;;;;;14.18;8.55;;;;;;;14.79;62.48;101178.12;1656050;86;21584;-66
2021/11/22 00:37:32;;;;;;;12.33;7.47;;;;;;;14.78;62.48;101178.56;1547658;93;21598;-68
2021/11/22 00:39:55;;;;;;;13.03;7.37;;;;;;;14.78;62.44;101175.08;1544621;93;21095;-72
2021/11/22 00:42:22;;;;;;;9.95;7.75;;;;;;;14.77;62.43;101177.31;1547446;93;21126;-65
2021/11/22 00:44:48;;;;;;;9.75;7.08;;;;;;;14.78;62.44;101172.45;1547440;91;21091;-72
2021/11/22 00:47:15;;;;;;;12.98;8.25;;;;;;;14.77;62.43;101177.31;1547442;93;21645;-73
2021/11/22 00:49:41;;;;;;;9.08;6.90;;;;;;;14.78;62.41;101177.70;1545002;93;21159;-71
2021/11/22 00:52:08;;;;;;;8.73;6.92;;;;;;;14.78;62.41;101173.77;1547078;93;21042;-72
2021/11/22 00:54:35;;;;;;;10.18;7.28;;;;;;;14.77;62.54;101170.77;1579293;90;21050;-67
2021/11/22 00:57:02;;;;;;;9.50;7.78;;;;;;;14.78;62.57;101172.45;1589792;88;21566;-70
2021/11/22 00:59:29;;;;;;;10.35;6.97;;;;;;;14.77;62.57;101173.38;1607190;86;21077;-72
2021/11/22 01:01:55;;;;;;;10.53;6.95;;;;;;;14.76;62.55;101171.66;1613698;87;21122;-73
2021/11/22 01:04:22;;;;;;;11.33;7.92;;;;;;;14.76;62.58;101175.58;1613276;87;21087;-66
2021/11/22 01:06:50;;;;;;;13.83;6.80;;;;;;;14.75;62.60;101177.81;1613205;87;21055;-69
2021/11/22 01:09:17;;;;;;;8.50;6.87;;;;;;;14.74;62.62;101171.70;1611249;87;21031;-70
2021/11/22 01:11:43;;;;;;;9.20;6.67;;;;;;;14.74;62.63;101172.16;1610416;87;21111;-71
2021/11/22 01:14:11;;;;;;;9.53;6.42;;;;;;;14.74;62.59;101168.23;1644809;83;21014;-69
2021/11/22 01:16:38;;;;;;;10.55;7.35;;;;;;;14.73;62.56;101174.39;1702650;84;21494;-72
2021/11/22 01:19:05;;;;;;;11.40;7.22;;;;;;;14.72;62.55;101170.03;1732958;81;21055;-68
2021/11/22 01:21:31;;;;;;;8.28;6.90;;;;;;;14.71;62.66;101174.45;1732446;81;21043;-71
2021/11/22 01:23:58;;;;;;;11.60;6.72;;;;;;;14.69;62.53;101169.23;1699990;84;21021;-71
2021/11/22 01:26:25;;;;;;;11.05;6.75;;;;;;;14.69;62.53;101163.99;1695786;84;21042;-67
2021/11/22 01:28:51;;;;;;;9.88;6.83;;;;;;;14.67;62.48;101164.49;1704318;84;21514;-71
2021/11/22 01:31:18;;;;;;;12.88;7.08;;;;;;;14.66;62.52;101161.48;1699116;83;20995;-72
2021/11/22 01:33:44;;;;;;;11.78;6.62;;;;;;;14.67;62.48;101165.80;1698885;84;21022;-68
2021/11/22 01:36:11;;;;;;;10.55;6.60;;;;;;;14.65;62.50;101165.00;1700020;84;20994;-65
2021/11/22 01:38:37;;;;;;;9.75;6.25;;;;;;;14.65;62.55;101162.37;1700983;84;21025;-65
2021/11/22 01:41:05;;;;;;;8.35;6.28;;;;;;;14.60;62.65;101156.45;1734519;81;21016;-64
2021/11/22 01:43:33;;;;;;;8.88;6.60;;;;;;;14.58;62.78;101153.47;1732643;81;21066;-71
2021/11/22 01:45:59;;;;;;;9.43;6.37;;;;;;;14.57;62.96;101159.14;1731842;81;20995;-66
2021/11/22 01:48:26;;;;;;;9.13;6.25;;;;;;;14.57;62.98;101156.53;1731298;81;21030;-66
2021/11/22 01:50:53;;;;;;;12.18;6.08;;;;;;;14.56;63.01;101144.80;1731384;81;21479;-71
2021/11/22 01:53:22;;;;;;;7.17;5.85;;;;;;;14.56;62.89;101149.59;1726629;82;20999;-63
2021/11/22 01:55:48;;;;;;;8.23;6.10;;;;;;;14.55;63.05;101149.17;1696647;84;21034;-72
2021/11/22 01:58:16;;;;;;;11.55;6.17;;;;;;;14.55;63.08;101149.63;1697584;84;21029;-66
2021/11/22 02:00:52;;;;;;;12.23;6.20;;;;;;;14.55;63.18;101153.10;1692376;84;21085;-63
2021/11/22 02:03:19;;;;;;;8.93;5.72;;;;;;;14.56;63.21;101146.98;1733862;81;20972;-69
2021/11/22 02:05:46;;;;;;;9.68;5.05;;;;;;;14.56;63.29;101149.59;1733187;81;21082;-64
2021/11/22 02:08:13;;;;;;;7.95;6.28;;;;;;;14.56;63.35;101149.59;1732362;81;20999;-64
2021/11/22 02:10:39;;;;;;;8.05;5.58;;;;;;;14.57;63.27;101148.67;1699850;84;20994;-71
2021/11/22 02:13:06;;;;;;;9.58;5.85;;;;;;;14.57;63.19;101147.36;1735858;82;21007;-67
2021/11/22 02:15:33;;;;;;;6.50;5.83;;;;;;;14.58;63.15;101141.23;1735990;81;20971;-66
2021/11/22 02:18:00;;;;;;;8.98;6.28;;;;;;;14.58;63.08;101142.55;1733226;81;21055;-66
2021/11/22 02:20:28;;;;;;;6.85;5.72;;;;;;;14.59;63.15;101142.07;1732920;81;21027;-72
2021/11/22 02:23:00;;;;;;;8.68;6.22;;;;;;;14.59;63.17;101140.76;1729267;81;20972;-69
2021/11/22 02:25:28;;;;;;;8.40;5.87;;;;;;;14.57;63.30;101139.50;1732473;81;20943;-70
2021/11/22 02:27:55;;;;;;;8.70;6.37;;;;;;;14.59;63.53;101143.38;1728425;81;21530;-71
2021/11/22 02:30:29;;;;;;;8.85;6.45;;;;;;;14.58;63.62;101143.86;1697613;84;21040;-70
2021/11/22 02:32:52;;;;;;;9.70;6.07;;;;;;;14.60;63.70;101139.87;1730935;81;21008;-67
2021/11/22 02:35:20;;;;;;;19.48;6.80;;;;;;;14.67;63.61;101145.33;1731347;81;21019;-69
2021/11/22 02:37:47;;;;;;;8.18;6.70;;;;;;;14.69;63.56;101143.03;1733023;81;21023;-74
2021/11/22 02:40:14;;;;;;;9.55;6.97;;;;;;;14.69;63.65;101140.41;1732559;81;21070;-66
2021/11/22 02:42:41;;;;;;;10.28;7.35;;;;;;;14.63;63.88;101136.69;1732700;81;20983;-65
2021/11/22 02:45:17;;;;;;;12.05;7.70;;;;;;;14.63;63.99;101139.31;1734717;81;21043;-69
2021/11/22 02:47:46;;;;;;;9.73;6.95;;;;;;;14.62;64.03;101137.61;1695143;84;20998;-69
2021/11/22 02:50:13;;;;;;;12.00;7.35;;;;;;;14.65;64.11;101143.21;1701257;84;21022;-71
2021/11/22 02:52:41;;;;;;;9.15;7.33;;;;;;;14.65;64.15;101141.42;1696780;84;21025;-68
2021/11/22 02:55:11;;;;;;;12.23;7.17;;;;;;;14.68;64.22;101141.78;1721984;81;21023;-69
2021/11/22 02:57:38;;;;;;;9.88;7.00;;;;;;;14.69;64.17;101140.41;1699394;84;21017;-68
2021/11/22 03:00:10;;;;;;;9.45;6.95;;;;;;;14.71;64.24;101143.02;1700702;84;21034;-67
2021/11/22 03:02:37;;;;;;;9.50;6.90;;;;;;;14.73;64.22;101145.57;1646598;87;21125;-72
2021/11/22 03:05:05;;;;;;;16.17;8.30;;;;;;;14.74;64.23;101138.09;1660106;85;21086;-69
2021/11/22 03:07:32;;;;;;;8.58;6.83;;;;;;;14.77;64.16;101145.87;1660162;85;21034;-67
2021/11/22 03:09:59;;;;;;;8.30;7.42;;;;;;;14.79;63.98;101145.37;1660980;86;21007;-71
2021/11/22 03:12:26;;;;;;;11.10;7.35;;;;;;;14.79;64.00;101137.51;1661968;85;21114;-73
2021/11/22 03:14:53;;;;;;;10.88;7.60;;;;;;;14.81;63.92;101143.55;1661857;85;21047;-69
2021/11/22 03:17:22;;;;;;;10.10;7.22;;;;;;;14.82;63.85;101142.66;1652845;85;21515;-71
2021/11/22 03:19:50;;;;;;;11.48;7.00;;;;;;;14.82;63.73;101143.50;1659029;85;21117;-68
2021/11/22 03:22:16;;;;;;;11.73;7.65;;;;;;;14.84;63.77;101146.09;1660800;85;21027;-73
2021/11/22 03:24:43;;;;;;;9.30;7.55;;;;;;;14.84;63.65;101139.54;1661820;85;21019;-71
2021/11/22 03:27:10;;;;;;;8.35;7.35;;;;;;;14.86;63.66;101148.20;1658038;86;21082;-75
2021/11/22 03:29:37;;;;;;;11.25;8.58;;;;;;;14.86;63.57;101144.27;1658778;85;20975;-68
2021/11/22 03:32:05;;;;;;;12.13;8.95;;;;;;;14.87;63.59;101142.04;1654038;85;21543;-73
2021/11/22 03:34:31;;;;;;;11.43;8.78;;;;;;;14.89;63.55;101152.02;1660434;85;21504;-74
2021/11/22 03:37:03;;;;;;;9.68;8.18;;;;;;;14.88;63.57;101150.32;1661922;85;21000;-73
2021/11/22 03:39:29;;;;;;;11.85;8.58;;;;;;;14.88;63.61;101150.32;1661955;85;21507;-70
2021/11/22 03:41:57;;;;;;;9.83;8.30;;;;;;;14.90;63.60;101153.75;1658048;86;21083;-69
2021/11/22 03:44:24;;;;;;;11.45;8.60;;;;;;;14.90;63.46;101156.37;1650862;85;21105;-67
2021/11/22 03:46:53;;;;;;;9.95;8.60;;;;;;;14.90;63.46;101153.75;1660606;85;21079;-66
2021/11/22 03:49:20;;;;;;;12.18;9.43;;;;;;;14.88;63.45;101151.16;1661943;85;21666;-70
2021/11/22 03:51:46;;;;;;;11.28;9.40;;;;;;;14.89;63.34;101155.95;1661904;85;21564;-68
2021/11/22 03:54:13;;;;;;;11.25;9.30;;;;;;;14.88;63.30;101163.42;1659074;85;21007;-71
2021/11/22 03:56:40;;;;;;;12.75;10.05;;;;;;;14.86;63.32;101154.75;1660823;86;21031;-69
2021/11/22 03:59:07;;;;;;;17.27;10.15;;;;;;;14.85;63.28;101154.34;1662013;85;20983;-69
2021/11/22 04:01:35;;;;;;;14.98;10.35;;;;;;;14.84;63.23;101157.40;1670831;85;21070;-70
2021/11/22 04:04:01;;;;;;;12.53;9.60;;;;;;;14.82;63.19;101148.73;1663625;85;21059;-70
2021/11/22 04:06:28;;;;;;;13.90;10.40;;;;;;;14.80;63.22;101154.48;1689519;83;21037;-66
2021/11/22 04:08:56;;;;;;;14.53;10.48;;;;;;;14.80;63.19;101147.06;1733085;81;21014;-67
2021/11/22 04:11:23;;;;;;;13.53;10.10;;;;;;;14.78;63.24;101148.87;1733696;81;20983;-70
2021/11/22 04:13:51;;;;;;;12.20;10.38;;;;;;;14.77;63.22;101147.19;1733389;81;21066;-64
2021/11/22 04:16:20;;;;;;;10.53;9.45;;;;;;;14.74;63.22;101141.59;1734789;81;21062;-70
2021/11/22 04:18:49;;;;;;;13.85;11.22;;;;;;;14.72;63.19;101136.84;1736333;81;21007;-66
2021/11/22 04:21:17;;;;;;;15.15;10.70;;;;;;;14.69;63.25;101139.11;1736219;81;21014;-67
2021/11/22 04:23:44;;;;;;;12.95;10.23;;;;;;;14.66;63.29;101140.98;1732185;82;21006;-68
2021/11/22 04:26:11;;;;;;;16.60;11.38;;;;;;;14.64;63.15;101143.66;1724519;81;21031;-66
2021/11/22 04:28:39;;;;;;;15.70;12.28;;;;;;;14.62;63.17;101151.16;1734744;81;21555;-72
2021/11/22 04:31:05;;;;;;;13.55;12.05;;;;;;;14.60;63.26;101151.20;1733437;81;21039;-67
2021/11/22 04:33:32;;;;;;;14.87;12.10;;;;;;;14.60;63.25;101152.52;1735552;82;21546;-67
2021/11/22 04:35:59;;;;;;;15.45;12.28;;;;;;;14.60;63.30;101159.06;1735931;81;21074;-69
2021/11/22 04:38:25;;;;;;;15.05;12.30;;;;;;;14.61;63.25;101152.08;1736616;81;21035;-67
2021/11/22 04:40:52;;;;;;;14.70;12.23;;;;;;;14.60;63.18;101156.45;1734224;81;21058;-68
2021/11/22 04:43:18;;;;;;;14.18;12.15;;;;;;;14.61;63.22;101162.55;1733587;81;20975;-61
2021/11/22 04:45:45;;;;;;;17.17;14.07;;;;;;;14.60;63.17;101159.06;1733616;81;21031;-67
2021/11/22 04:48:11;;;;;;;17.17;12.90;;;;;;;14.61;63.13;101162.08;1733222;81;20990;-63
2021/11/22 04:50:38;;;;;;;17.75;13.32;;;;;;;14.61;63.14;101169.93;1733600;81;21540;-67
2021/11/22 04:53:05;;;;;;;16.80;13.18;;;;;;;14.62;62.96;101177.34;1748806;82;21071;-65
2021/11/22 04:55:32;;;;;;;19.12;14.38;;;;;;;14.61;62.89;101180.41;1740126;81;21006;-63
2021/11/22 04:57:58;;;;;;;17.23;13.75;;;;;;;14.60;62.77;101182.64;1733589;81;21038;-64
2021/11/22 05:00:25;;;;;;;17.12;13.72;;;;;;;14.60;62.75;101189.19;1735663;81;21003;-63
2021/11/22 05:02:53;;;;;;;18.15;13.93;;;;;;;14.60;62.69;101183.08;1741548;81;21042;-65
2021/11/22 05:05:20;;;;;;;15.93;13.78;;;;;;;14.60;62.72;101193.55;1741589;81;21107;-66
2021/11/22 05:07:47;;;;;;;15.68;13.40;;;;;;;14.60;62.67;101194.42;1734366;81;21684;-62
2021/11/22 05:10:15;;;;;;;17.10;14.10;;;;;;;14.60;62.70;101200.97;1733152;81;21050;-65
2021/11/22 05:12:41;;;;;;;16.82;14.75;;;;;;;14.60;62.69;101198.35;1733522;82;21018;-62
2021/11/22 05:15:08;;;;;;;18.82;16.00;;;;;;;14.60;62.68;101198.35;1734516;81;21496;-69
2021/11/22 05:17:34;;;;;;;21.45;16.20;;;;;;;14.61;62.61;101201.84;1727694;81;20999;-66
2021/11/22 05:20:03;;;;;;;21.57;16.93;;;;;;;14.60;62.47;101206.20;1731538;81;21007;-64
2021/11/22 05:22:30;;;;;;;21.10;16.65;;;;;;;14.61;62.37;101207.08;1731394;81;21499;-61
2021/11/22 05:24:57;;;;;;;20.12;15.58;;;;;;;14.60;62.39;101210.58;1732727;81;21027;-65
2021/11/22 05:27:26;;;;;;;22.30;15.88;;;;;;;14.58;62.30;101210.64;1730196;82;21498;-67
2021/11/22 05:29:53;;;;;;;19.00;15.40;;;;;;;14.56;62.30;101217.69;1734406;81;20999;-63
2021/11/22 05:32:20;;;;;;;18.30;14.47;;;;;;;14.54;62.19;101218.19;1726033;81;21487;-61
2021/11/22 05:34:53;;;;;;;16.35;14.13;;;;;;;14.54;62.19;101219.49;1731547;81;21015;-70
2021/11/22 05:37:20;;;;;;;18.05;14.13;;;;;;;14.53;62.20;101226.06;1731625;81;21042;-62
2021/11/22 05:39:48;;;;;;;18.05;14.07;;;;;;;14.53;62.20;101230.86;1733594;81;21019;-67
2021/11/22 05:42:16;;;;;;;17.37;13.25;;;;;;;14.53;62.13;101240.02;1734780;81;21090;-61
2021/11/22 05:44:43;;;;;;;14.45;12.33;;;;;;;14.53;62.17;101237.41;1730372;82;21039;-65
2021/11/22 05:47:11;;;;;;;13.78;11.93;;;;;;;14.52;62.00;101238.33;1726274;81;20983;-69
2021/11/22 05:49:38;;;;;;;14.13;11.20;;;;;;;14.52;61.93;101240.94;1731432;81;21008;-64
2021/11/22 05:52:06;;;;;;;14.18;11.55;;;;;;;14.50;61.86;101245.37;1732297;81;21032;-62
2021/11/22 05:54:33;;;;;;;12.80;11.05;;;;;;;14.50;61.78;101242.75;1733511;81;20995;-64
2021/11/22 05:57:00;;;;;;;14.00;11.12;;;;;;;14.50;61.80;101246.68;1731159;81;20991;-68
2021/11/22 05:59:28;;;;;;;12.30;10.65;;;;;;;14.51;61.77;101250.13;1721644;81;21164;-62
2021/11/22 06:01:54;;;;;;;15.55;12.10;;;;;;;14.50;61.76;101249.30;1728633;81;21023;-64
2021/11/22 06:04:21;;;;;;;16.02;12.95;;;;;;;14.51;61.77;101248.38;1735283;81;21031;-62
2021/11/22 06:06:48;;;;;;;16.48;12.15;;;;;;;14.51;61.76;101252.30;1733219;81;20983;-66
2021/11/22 06:09:14;;;;;;;16.42;12.30;;;;;;;14.52;61.77;101252.73;1733682;81;21546;-67
2021/11/22 06:11:43;;;;;;;13.75;12.20;;;;;;;14.54;61.67;101250.05;1733756;82;21097;-69
2021/11/22 06:14:09;;;;;;;16.37;12.55;;;;;;;14.52;61.55;101250.11;1735135;81;21030;-64
2021/11/22 06:16:36;;;;;;;14.50;12.45;;;;;;;14.53;61.59;101253.11;1735541;81;21026;-66
2021/11/22 06:19:02;;;;;;;14.60;12.53;;;;;;;14.54;61.61;101256.16;1732260;81;21113;-69
2021/11/22 06:21:29;;;;;;;15.15;12.73;;;;;;;14.55;61.46;101251.30;1732545;81;21082;-68
2021/11/22 06:23:56;;;;;;;14.18;12.55;;;;;;;14.58;61.21;101255.16;1738003;82;21654;-72
2021/11/22 06:26:22;;;;;;;15.90;13.20;;;;;;;14.58;61.05;101245.99;1735494;81;21078;-75
2021/11/22 06:28:49;;;;;;;16.80;14.00;;;;;;;14.58;60.95;101257.78;1737744;81;21013;-75
2021/11/22 06:31:16;;;;;;;16.95;13.72;;;;;;;14.58;60.78;101253.85;1730952;81;21042;-70
2021/11/22 06:33:43;;;;;;;14.35;12.73;;;;;;;14.59;60.47;101249.00;1733416;81;21570;-74
2021/11/22 06:36:10;;;;;;;15.15;11.97;;;;;;;14.60;60.17;101257.72;1733883;82;21503;-74
2021/11/22 06:38:36;;;;;;;15.50;10.88;;;;;;;14.58;60.08;101260.40;1735823;81;21015;-72
2021/11/22 06:41:03;;;;;;;13.40;11.57;;;;;;;14.56;59.84;101259.59;1734563;81;21007;-77
2021/11/22 06:43:30;;;;;;;11.53;10.32;;;;;;;14.56;59.85;101263.52;1733562;81;21504;-74
2021/11/22 06:45:56;;;;;;;12.78;11.10;;;;;;;14.55;59.48;101267.02;1731129;81;21046;-76
2021/11/22 06:48:23;;;;;;;10.60;9.50;;;;;;;14.52;59.48;101260.58;1731310;81;21019;-76
2021/11/22 06:50:49;;;;;;;9.25;8.00;;;;;;;14.53;59.16;101260.97;1730796;81;21519;-76
2021/11/22 06:53:21;;;;;;;10.38;8.58;;;;;;;14.53;58.99;101262.28;1727517;81;21047;-76
2021/11/22 06:55:46;;;;;;;9.23;8.33;;;;;;;14.53;58.85;101264.90;1695015;84;22170;-74
2021/11/22 06:58:12;;;;;;;8.18;7.37;;;;;;;14.53;58.81;101262.28;1689509;84;21049;-73
2021/11/22 07:00:40;;;;;;;8.10;7.30;;;;;;;14.54;58.57;101261.84;1700267;84;21082;-69
2021/11/22 07:03:07;;;;;;;8.93;8.03;;;;;;;14.52;58.29;101264.51;1736490;81;21099;-67
2021/11/22 07:05:35;;;;;;;8.05;7.25;;;;;;;14.51;58.12;101262.78;1699612;84;20986;-64
2021/11/22 07:08:04;;;;;;;8.68;7.78;;;;;;;14.50;58.23;101265.01;1697554;83;21504;-70
2021/11/22 07:10:31;;;;;;;8.83;7.92;;;;;;;14.49;58.08;101263.28;1697879;83;21531;-69
2021/11/22 07:12:57;;;;;;;9.03;7.22;;;;;;;14.48;58.19;101258.95;1697869;83;21120;-66
2021/11/22 07:15:24;;;;;;;8.65;7.72;;;;;;;14.46;57.75;101266.00;1692584;83;21014;-70
2021/11/22 07:17:51;;;;;;;9.00;8.10;;;;;;;14.39;57.44;101255.73;1698202;84;20998;-67
2021/11/22 07:20:18;;;;;;;9.08;8.18;;;;;;;14.32;57.19;101268.14;1697848;84;21037;-63
2021/11/22 07:22:45;;;;;;;9.25;8.30;;;;;;;14.24;56.98;101266.16;1697306;83;21042;-63
2021/11/22 07:25:12;;;;;;;10.98;9.75;;;;;;;14.16;57.05;101265.52;1698102;83;21495;-63
2021/11/22 07:27:38;;;;;;;12.25;10.35;;;;;;;14.10;57.20;101264.39;1694802;84;20974;-60
2021/11/22 07:30:06;;;;;;;15.65;11.03;;;;;;;14.03;57.07;101264.17;1736184;81;21027;-63
2021/11/22 07:32:33;;;;;;;15.35;11.88;;;;;;;13.94;57.11;101268.78;1729434;81;21475;-62
2021/11/22 07:34:59;;;;;;;13.48;11.73;;;;;;;13.85;57.21;101265.52;1731175;81;21026;-61
2021/11/22 07:37:27;;;;;;;14.15;12.05;;;;;;;13.80;57.53;101268.72;1732221;81;21070;-68
2021/11/22 07:39:54;;;;;;;12.85;11.53;;;;;;;13.82;57.63;101271.28;1732957;81;21074;-60
2021/11/22 07:42:20;;;;;;;12.55;10.80;;;;;;;13.85;57.77;101271.19;1734602;81;21035;-63
2021/11/22 07:44:49;;;;;;;13.28;11.28;;;;;;;13.89;57.84;101275.00;1734568;81;20991;-63
2021/11/22 07:47:15;;;;;;;11.25;10.10;;;;;;;13.91;57.70;101278.88;1732984;81;21129;-61
2021/11/22 07:49:42;;;;;;;12.15;10.43;;;;;;;13.91;57.61;101281.48;1734375;81;21530;-60
2021/11/22 07:52:08;;;;;;;12.07;9.40;;;;;;;13.94;57.57;101286.66;1732057;82;21011;-62
2021/11/22 07:54:36;;;;;;;11.43;10.30;;;;;;;13.97;57.33;101289.20;1745694;81;21042;-63
2021/11/22 07:57:04;;;;;;;12.65;11.22;;;;;;;13.96;57.26;101284.84;1731076;81;21093;-60
2021/11/22 07:59:30;;;;;;;13.18;11.78;;;;;;;13.95;57.22;101284.42;1737346;81;21530;-60
2021/11/22 08:01:57;;;;;;;14.93;12.88;;;;;;;13.95;57.26;101288.34;1734391;82;21515;-60
2021/11/22 08:04:23;;;;;;;14.25;12.60;;;;;;;13.97;57.33;101281.34;1733989;81;20976;-59
2021/11/22 08:06:57;;;;;;;17.27;14.43;;;;;;;13.98;57.35;101281.74;1723223;81;21011;-64
2021/11/22 08:09:31;;;;;;;16.60;14.60;;;;;;;14.01;57.38;101290.83;1729428;81;20979;-62
2021/11/22 08:12:14;;;;;;;16.93;15.13;;;;;;;14.02;57.15;101285.13;1732484;81;21007;-58
2021/11/22 08:14:32;;;;;;;18.95;16.45;;;;;;;14.05;57.38;101295.08;1727629;81;21006;-62
2021/11/22 08:16:58;;;;;;;19.10;15.25;;;;;;;14.10;57.37;101293.17;1734901;81;21523;-66
2021/11/22 08:19:26;;;;;;;18.52;15.65;;;;;;;14.14;57.08;101293.94;1733734;81;21039;-57
2021/11/22 08:21:53;;;;;;;20.72;15.78;;;;;;;14.13;56.77;101291.80;1732346;81;21011;-57
2021/11/22 08:24:19;;;;;;;20.55;16.62;;;;;;;14.10;56.67;101298.41;1732519;81;21046;-58
2021/11/22 08:26:45;;;;;;;19.23;16.32;;;;;;;14.09;56.71;101298.46;1733224;82;21093;-59
2021/11/22 08:29:12;;;;;;;17.85;15.40;;;;;;;14.11;56.72;101301.45;1726029;81;21518;-63
2021/11/22 08:31:38;;;;;;;19.10;16.37;;;;;;;14.12;56.26;101305.77;1729290;81;21019;-60
2021/11/22 08:34:05;;;;;;;18.57;16.50;;;;;;;14.07;55.98;101299.82;1734768;81;21026;-58
2021/11/22 08:36:32;;;;;;;20.75;17.57;;;;;;;14.04;56.21;101301.20;1737952;81;21039;-64
2021/11/22 08:38:58;;;;;;;19.82;17.73;;;;;;;14.01;56.15;101303.91;1732878;81;21459;-61
2021/11/22 08:41:25;;;;;;;19.77;17.45;;;;;;;13.98;56.11;101296.13;1735273;82;21022;-60
2021/11/22 08:43:51;;;;;;;21.75;18.32;;;;;;;13.95;56.15;101292.27;1734050;81;20932;-60
2021/11/22 08:46:18;;;;;;;21.00;17.75;;;;;;;13.91;56.13;101296.34;1734320;81;21034;-61
2021/11/22 08:48:44;;;;;;;17.45;15.55;;;;;;;13.86;56.07;101286.00;1730604;81;21507;-60
2021/11/22 08:51:10;;;;;;;17.77;15.13;;;;;;;13.82;56.10;101298.75;1731957;81;21066;-62
2021/11/22 08:53:38;;;;;;;17.95;15.95;;;;;;;13.80;55.98;101299.25;1723115;82;21082;-60
2021/11/22 08:56:05;;;;;;;18.77;16.75;;;;;;;13.77;56.04;101296.69;1731572;81;21054;-58
2021/11/22 08:58:32;;;;;;;18.02;16.07;;;;;;;13.77;56.05;101296.69;1730689;81;21058;-63
2021/11/22 09:00:58;;;;;;;21.70;16.75;;;;;;;13.75;56.14;101297.19;1732892;81;21051;-58
2021/11/22 09:03:25;;;;;;;15.38;13.75;;;;;;;13.76;56.03;101294.99;1732019;81;21074;-59
2021/11/22 09:05:52;;;;;;;14.30;12.80;;;;;;;13.74;55.68;101307.25;1732224;81;21476;-58
2021/11/22 09:08:18;;;;;;;14.68;13.25;;;;;;;13.70;55.68;101303.00;1733982;81;21034;-61
2021/11/22 09:10:44;;;;;;;11.80;9.93;;;;;;;13.69;55.73;101303.88;1730382;82;21038;-57
2021/11/22 09:13:14;;;;;;;10.78;9.58;;;;;;;13.68;55.45;101304.80;1696042;84;20995;-61
2021/11/22 09:15:42;;;;;;;12.35;10.40;;;;;;;13.62;55.51;101294.50;1698332;84;21053;-60
2021/11/22 09:18:08;;;;;;;10.18;9.13;;;;;;;13.60;55.93;101298.91;1684582;83;21106;-61
2021/11/22 09:20:35;;;;;;;16.25;14.13;;;;;;;13.59;55.97;101295.42;1684888;83;21107;-58
2021/11/22 09:23:03;;;;;;;12.88;10.68;;;;;;;13.58;55.99;101296.78;1682201;84;21066;-65
2021/11/22 09:25:32;;;;;;;11.75;10.48;;;;;;;13.57;55.92;101297.22;1675999;84;21034;-63
2021/11/22 09:27:59;;;;;;;11.88;10.60;;;;;;;13.53;55.91;101294.72;1695432;83;21591;-57
2021/11/22 09:30:25;;;;;;;12.18;10.75;;;;;;;13.49;55.98;101300.92;1686752;84;21524;-57
2021/11/22 09:32:52;;;;;;;12.70;10.98;;;;;;;13.47;56.11;101300.10;1685416;83;21031;-62
2021/11/22 09:35:20;;;;;;;12.65;11.40;;;;;;;13.46;56.32;101303.59;1684887;83;21039;-60
2021/11/22 09:37:47;;;;;;;13.58;12.18;;;;;;;13.47;56.44;101302.72;1685110;83;21028;-61
2021/11/22 09:40:14;;;;;;;12.63;11.33;;;;;;;13.51;56.81;101299.99;1684478;83;21115;-66
2021/11/22 09:42:40;;;;;;;13.45;11.55;;;;;;;13.56;56.73;101296.80;1692557;83;21526;-57
2021/11/22 09:45:10;;;;;;;13.48;11.78;;;;;;;13.57;56.75;101298.97;1694746;83;21067;-64
2021/11/22 09:47:36;;;;;;;14.95;12.98;;;;;;;13.60;56.70;101300.22;1665774;83;21057;-65
2021/11/22 09:50:04;;;;;;;15.60;13.10;;;;;;;13.60;56.87;101303.66;1686647;83;21067;-58
2021/11/22 09:52:30;;;;;;;16.20;12.93;;;;;;;13.62;56.75;101305.79;1682270;84;21027;-61
2021/11/22 09:54:59;;;;;;;16.75;14.47;;;;;;;13.65;56.86;101308.78;1673500;83;20992;-61
2021/11/22 09:57:25;;;;;;;16.40;13.62;;;;;;;13.68;56.80;101308.72;1686107;83;20989;-58
2021/11/22 09:59:52;;;;;;;17.90;15.35;;;;;;;13.68;56.79;101313.48;1683889;83;21047;-62
2021/11/22 10:02:18;;;;;;;20.50;16.23;;;;;;;13.71;56.94;101315.16;1684283;84;21119;-57
2021/11/22 10:04:45;;;;;;;17.77;15.10;;;;;;;13.73;56.86;101313.36;1684319;84;21035;-59
2021/11/22 10:07:15;;;;;;;19.73;15.72;;;;;;;13.73;56.93;101313.36;1685475;83;21497;-62
2021/11/22 10:09:45;;;;;;;18.23;15.25;;;;;;;13.73;57.00;101317.29;1725949;81;21081;-62
2021/11/22 10:12:20;;;;;;;21.52;16.80;;;;;;;13.74;57.02;101310.73;1739290;81;21536;-66
2021/11/22 10:14:55;;;;;;;21.17;17.32;;;;;;;13.74;56.94;101307.25;1739242;81;21579;-58
2021/11/22 10:17:38;;;;;;;19.30;16.42;;;;;;;13.73;56.93;101310.75;1725099;81;21003;-59
2021/11/22 10:20:13;;;;;;;25.02;17.75;;;;;;;13.71;57.00;101305.56;1732284;81;21528;-58
2021/11/22 10:23:00;;;;;;;22.77;18.62;;;;;;;13.70;57.17;101309.54;1718180;82;21565;-58
2021/11/22 10:25:37;;;;;;;21.07;17.23;;;;;;;13.70;57.30;101300.39;1707065;82;21041;-61
2021/11/22 10:28:21;;;;;;;19.62;17.05;;;;;;;13.70;57.22;101309.06;1718419;82;21614;-61
2021/11/22 10:30:57;;;;;;;23.50;19.07;;;;;;;13.69;57.16;101306.50;1692620;85;21024;-61
2021/11/22 10:33:28;;;;;;;21.42;18.73;;;;;;;13.59;57.23;101304.58;1692020;85;21025;-58
2021/11/22 10:35:57;;;;;;;24.65;19.77;;;;;;;13.56;57.57;101310.34;1692526;83;21089;-62
2021/11/22 10:38:30;;;;;;;22.55;19.17;;;;;;;13.58;57.79;101301.53;1692362;83;21525;-58
2021/11/22 10:41:02;;;;;;;25.20;20.95;;;;;;;13.62;57.93;101297.11;1635488;86;21107;-58
2021/11/22 10:43:52;;;;;;;25.62;21.17;;;;;;;13.64;57.78;101301.37;1629787;86;21115;-63
2021/11/22 10:46:28;;;;;;;25.27;20.05;;;;;;;13.67;57.69;101305.68;1635069;86;21056;-59
2021/11/22 10:49:42;;;;;;;25.88;21.77;;;;;;;13.67;57.70;101303.93;1635207;86;21599;-62
2021/11/22 10:52:26;;;;;;;27.15;21.77;;;;;;;13.67;57.79;101300.01;1520714;94;21590;-58
2021/11/22 10:55:03;;;;;;;27.10;20.68;;;;;;;13.66;57.59;101298.27;1522303;93;21102;-58
2021/11/22 10:57:37;;;;;;;28.95;22.05;;;;;;;13.64;57.72;101300.07;1507383;94;21079;-57
2021/11/22 11:02:55;;;;;;;29.05;22.00;;;;;;;13.68;57.66;101305.63;1362831;102;21173;-63
2021/11/22 11:05:35;;;;;;;30.30;22.10;;;;;;;13.70;57.66;101299.08;1352652;106;21176;-65
2021/11/22 11:08:10;;;;;;;28.90;22.62;;;;;;;13.71;57.60;101296.86;1352425;106;21138;-61
2021/11/22 11:10:41;;;;;;;25.10;21.20;;;;;;;13.68;57.56;101296.95;1352194;106;21712;-62
2021/11/22 11:13:09;;;;;;;27.90;22.77;;;;;;;13.69;57.67;101296.03;1350299;106;21155;-60
2021/11/22 11:15:38;;;;;;;28.62;23.50;;;;;;;13.70;57.80;101295.16;1319132;109;21191;-57
2021/11/22 11:18:05;;;;;;;27.20;22.25;;;;;;;13.69;57.68;101294.29;1319358;109;21172;-59
2021/11/22 11:20:33;;;;;;;29.35;23.22;;;;;;;13.69;57.85;101294.73;1316339;109;21211;-65